createdAt,value
2018-10-09T00:00:58.567Z,4.20
2018-10-09T00:03:27.218Z,4.23
2018-10-09T00:05:55.894Z,4.10
2018-10-09T00:08:24.551Z,4.80
2018-10-09T00:10:53.220Z,4.13
2018-10-09T00:13:21.861Z,4.70
2018-10-09T00:15:50.701Z,4.23
2018-10-09T00:18:19.350Z,4.73
2018-10-09T00:20:48.007Z,4.50
2018-10-09T00:23:16.655Z,5.17
2018-10-09T00:25:45.310Z,4.23
2018-10-09T00:28:13.959Z,4.30
2018-10-09T00:30:42.629Z,5.53
2018-10-09T00:33:11.274Z,5.00
2018-10-09T00:35:39.931Z,5.23
2018-10-09T00:38:08.583Z,5.50
2018-10-09T00:40:37.239Z,4.83
2018-10-09T00:43:05.882Z,5.40
2018-10-09T00:45:34.537Z,4.77
2018-10-09T00:48:03.190Z,5.80
2018-10-09T00:50:31.853Z,5.67
2018-10-09T00:53:00.506Z,5.00
2018-10-09T00:55:29.158Z,5.77
2018-10-09T00:57:57.822Z,6.43
2018-10-09T01:00:26.482Z,6.00
2018-10-09T01:02:55.134Z,5.90
2018-10-09T01:05:23.792Z,5.93
2018-10-09T01:07:52.426Z,6.70
2018-10-09T01:10:21.074Z,6.50
2018-10-09T01:12:49.726Z,6.57
2018-10-09T01:15:18.375Z,7.00
2018-10-09T01:17:47.015Z,7.37
2018-10-09T01:20:19.922Z,7.10
2018-10-09T01:22:48.605Z,6.77
2018-10-09T01:25:17.254Z,7.10
2018-10-09T01:27:45.902Z,6.37
2018-10-09T01:30:14.558Z,5.80
2018-10-09T01:32:43.201Z,6.70
2018-10-09T01:35:11.851Z,6.77
2018-10-09T01:37:40.506Z,6.80
2018-10-09T01:40:09.160Z,6.40
2018-10-09T01:42:37.813Z,6.43
2018-10-09T01:45:06.458Z,6.83
2018-10-09T01:47:35.106Z,6.57
2018-10-09T01:50:03.763Z,6.50
2018-10-09T01:52:32.486Z,7.03
2018-10-09T01:55:01.266Z,6.63
2018-10-09T01:57:29.921Z,6.93
2018-10-09T01:59:58.564Z,6.90
2018-10-09T02:02:27.220Z,7.17
2018-10-09T02:04:55.868Z,7.17
2018-10-09T02:07:24.540Z,7.67
2018-10-09T02:09:53.189Z,6.43
2018-10-09T02:12:21.862Z,7.17
2018-10-09T02:14:50.521Z,7.60
2018-10-09T02:17:19.206Z,7.87
2018-10-09T02:19:47.851Z,6.70
2018-10-09T02:22:16.600Z,7.40
2018-10-09T02:24:45.262Z,6.73
2018-10-09T02:27:13.915Z,8.23
2018-10-09T02:29:42.560Z,7.03
2018-10-09T02:32:11.212Z,7.20
2018-10-09T02:34:39.877Z,7.83
2018-10-09T02:37:08.541Z,8.50
2018-10-09T02:39:37.203Z,8.13
2018-10-09T02:42:06.009Z,8.77
2018-10-09T02:44:34.761Z,8.63
2018-10-09T02:47:03.477Z,9.60
2018-10-09T02:49:32.139Z,9.10
2018-10-09T02:52:00.785Z,8.40
2018-10-09T02:54:29.516Z,9.50
2018-10-09T02:56:58.169Z,9.47
2018-10-09T02:59:26.828Z,9.07
2018-10-09T03:01:55.491Z,9.63
2018-10-09T03:04:24.145Z,8.73
2018-10-09T03:06:52.808Z,8.40
2018-10-09T03:09:21.457Z,9.47
2018-10-09T03:11:50.120Z,10.33
2018-10-09T03:14:18.768Z,9.87
2018-10-09T03:16:47.424Z,10.20
2018-10-09T03:19:16.083Z,9.90
2018-10-09T03:21:44.750Z,11.10
2018-10-09T03:24:13.405Z,11.20
2018-10-09T03:26:42.081Z,11.55
2018-10-09T03:29:10.747Z,11.87
2018-10-09T03:31:39.405Z,10.77
2018-10-09T03:34:08.096Z,11.43
2018-10-09T03:36:36.761Z,11.73
2018-10-09T03:39:06.875Z,11.77
2018-10-09T03:41:35.536Z,12.77
2018-10-09T03:44:04.192Z,12.17
2018-10-09T03:46:32.856Z,13.07
2018-10-09T03:49:01.549Z,14.40
2018-10-09T03:51:30.209Z,14.23
2018-10-09T03:53:58.884Z,12.93
2018-10-09T03:56:27.566Z,16.37
2018-10-09T03:58:56.216Z,17.03
2018-10-09T04:01:24.896Z,17.10
2018-10-09T04:03:53.635Z,16.47
2018-10-09T04:06:22.301Z,15.28
2018-10-09T04:08:50.974Z,15.20
2018-10-09T04:11:19.873Z,15.10
2018-10-09T04:13:48.556Z,15.43
2018-10-09T04:16:17.208Z,16.13
2018-10-09T04:18:45.946Z,15.87
2018-10-09T04:21:14.596Z,16.30
2018-10-09T04:23:43.244Z,15.13
2018-10-09T04:26:11.901Z,14.40
2018-10-09T04:28:40.561Z,13.83
2018-10-09T04:31:09.212Z,14.67
2018-10-09T04:33:37.889Z,14.60
2018-10-09T04:36:06.536Z,13.77
2018-10-09T04:38:35.200Z,14.53
2018-10-09T04:41:03.854Z,13.73
2018-10-09T04:43:32.536Z,13.63
2018-10-09T04:46:01.215Z,13.40
2018-10-09T04:48:29.881Z,14.30
2018-10-09T04:50:58.545Z,16.00
2018-10-09T04:53:27.209Z,15.53
2018-10-09T04:55:55.877Z,15.27
2018-10-09T04:58:24.629Z,14.70
2018-10-09T05:00:53.305Z,15.27
2018-10-09T05:03:21.960Z,16.00
2018-10-09T05:05:50.613Z,15.47
2018-10-09T05:08:19.265Z,13.90
2018-10-09T05:10:48.020Z,15.03
2018-10-09T05:13:16.680Z,15.50
2018-10-09T05:15:45.348Z,15.50
2018-10-09T05:18:14.017Z,16.10
2018-10-09T05:20:42.764Z,15.97
2018-10-09T05:23:11.450Z,15.37
2018-10-09T05:25:40.064Z,16.83
2018-10-09T05:28:09.109Z,16.93
2018-10-09T05:30:37.765Z,17.57
2018-10-09T05:33:06.424Z,16.37
2018-10-09T05:35:35.081Z,17.03
2018-10-09T05:38:03.720Z,15.53
2018-10-09T05:40:32.374Z,14.10
2018-10-09T05:43:01.048Z,14.87
2018-10-09T05:45:29.708Z,14.63
2018-10-09T05:47:58.360Z,14.77
2018-10-09T05:50:27.016Z,15.00
2018-10-09T05:52:55.769Z,16.17
2018-10-09T05:55:24.429Z,15.33
2018-10-09T05:57:53.134Z,17.03
2018-10-09T06:00:21.812Z,18.00
2018-10-09T06:02:50.469Z,16.37
2018-10-09T06:05:19.164Z,16.07
2018-10-09T06:07:47.821Z,15.83
2018-10-09T06:10:16.456Z,15.97
2018-10-09T06:12:45.112Z,25.50
2018-10-09T06:15:13.763Z,32.00
2018-10-09T06:17:42.521Z,28.50
2018-10-09T06:20:11.184Z,25.20
2018-10-09T06:22:39.834Z,24.03
2018-10-09T06:25:08.493Z,18.20
2018-10-09T06:27:37.153Z,20.10
2018-10-09T06:30:05.984Z,16.43
2018-10-09T06:32:34.740Z,17.17
2018-10-09T06:35:04.040Z,16.37
2018-10-09T06:37:32.721Z,15.47
2018-10-09T06:40:01.380Z,16.63
2018-10-09T06:42:30.189Z,19.60
2018-10-09T06:44:58.864Z,16.80
2018-10-09T06:47:27.546Z,17.60
2018-10-09T06:49:56.244Z,17.93
2018-10-09T06:52:24.938Z,15.60
2018-10-09T06:54:53.633Z,16.80
2018-10-09T06:57:22.258Z,15.67
2018-10-09T06:59:50.920Z,14.87
2018-10-09T07:02:19.573Z,15.00
2018-10-09T07:04:48.277Z,17.70
2018-10-09T07:07:16.928Z,15.47
2018-10-09T07:09:45.580Z,15.93
2018-10-09T07:12:14.241Z,19.43
2018-10-09T07:14:43.089Z,15.37
2018-10-09T07:17:11.746Z,15.00
2018-10-09T07:19:40.414Z,14.97
2018-10-09T07:22:09.144Z,13.43
2018-10-09T07:24:37.846Z,15.33
2018-10-09T07:27:06.661Z,16.37
2018-10-09T07:29:35.443Z,16.33
2018-10-09T07:32:04.070Z,15.73
2018-10-09T07:34:32.732Z,14.03
2018-10-09T07:37:01.469Z,16.47
2018-10-09T07:39:30.149Z,14.93
2018-10-09T07:41:58.903Z,14.50
2018-10-09T07:44:27.634Z,13.97
2018-10-09T07:46:56.286Z,13.63
2018-10-09T07:49:24.957Z,14.63
2018-10-09T07:51:53.618Z,14.37
2018-10-09T07:54:22.280Z,15.20
2018-10-09T07:56:50.937Z,15.73
2018-10-09T07:59:19.637Z,16.33
2018-10-09T08:01:48.324Z,16.80
2018-10-09T08:04:16.988Z,19.30
2018-10-09T08:06:45.635Z,20.83
2018-10-09T08:09:14.296Z,23.30
2018-10-09T08:11:42.948Z,25.43
2018-10-09T08:14:11.824Z,24.10
2018-10-09T08:16:40.565Z,22.63
2018-10-09T08:19:09.245Z,21.20
2018-10-09T08:21:37.905Z,18.83
2018-10-09T08:24:06.790Z,15.63
2018-10-09T08:26:36.017Z,13.43
2018-10-09T08:29:04.658Z,12.73
2018-10-09T08:31:33.663Z,12.53
2018-10-09T08:34:02.311Z,9.97
2018-10-09T08:36:30.956Z,9.87
2018-10-09T08:38:59.633Z,9.87
2018-10-09T08:41:28.267Z,9.47
2018-10-09T08:43:56.941Z,10.03
2018-10-09T08:46:25.626Z,8.63
2018-10-09T08:48:54.252Z,8.50
2018-10-09T08:51:22.937Z,7.00
2018-10-09T08:53:51.594Z,7.70
2018-10-09T08:56:20.252Z,7.63
2018-10-09T08:58:48.926Z,7.07
2018-10-09T09:01:17.586Z,6.30
2018-10-09T09:03:46.251Z,7.00
2018-10-09T09:06:14.925Z,7.20
2018-10-09T09:08:43.581Z,6.53
2018-10-09T09:11:12.237Z,8.10
2018-10-09T09:13:40.894Z,7.33
2018-10-09T09:16:09.540Z,7.47
2018-10-09T09:18:38.353Z,8.03
2018-10-09T09:23:55.444Z,7.80
2018-10-09T09:26:24.146Z,6.37
2018-10-09T09:28:52.793Z,6.30
2018-10-09T09:31:21.581Z,6.50
2018-10-09T09:33:50.237Z,7.27
2018-10-09T09:36:18.929Z,7.70
2018-10-09T09:38:47.581Z,6.70
2018-10-09T09:41:16.241Z,7.93
2018-10-09T09:43:44.896Z,7.30
2018-10-09T09:46:13.631Z,6.70
2018-10-09T09:48:42.249Z,6.47
2018-10-09T09:51:10.901Z,7.23
2018-10-09T09:53:39.554Z,9.17
2018-10-09T09:56:08.241Z,8.10
2018-10-09T09:58:37.167Z,7.33
2018-10-09T10:01:09.561Z,6.70
2018-10-09T10:03:39.387Z,7.27
2018-10-09T10:06:08.572Z,7.37
2018-10-09T10:08:37.553Z,6.73
2018-10-09T10:11:06.211Z,6.63
2018-10-09T10:13:35.024Z,6.20
2018-10-09T10:16:03.681Z,6.10
2018-10-09T10:18:32.341Z,5.50
2018-10-09T10:21:01.027Z,5.47
2018-10-09T10:23:29.670Z,6.10
2018-10-09T10:25:58.317Z,6.00
2018-10-09T10:28:27.049Z,6.63
2018-10-09T10:30:55.697Z,7.83
2018-10-09T10:33:24.418Z,8.30
2018-10-09T10:35:53.113Z,8.03
2018-10-09T10:38:21.767Z,8.40
2018-10-09T10:40:50.412Z,8.23
2018-10-09T10:43:19.144Z,8.07
2018-10-09T10:45:47.799Z,7.57
2018-10-09T10:48:16.453Z,8.30
2018-10-09T10:50:45.137Z,8.50
2018-10-09T10:53:13.801Z,8.53
2018-10-09T10:55:42.453Z,8.00
2018-10-09T10:58:11.113Z,8.73
2018-10-09T11:00:39.774Z,8.03
2018-10-09T11:03:08.424Z,9.10
2018-10-09T11:05:37.090Z,8.50
2018-10-09T11:08:05.844Z,8.33
2018-10-09T11:10:34.423Z,8.33
2018-10-09T11:13:03.086Z,7.83
2018-10-09T11:15:31.743Z,8.60
2018-10-09T11:18:00.398Z,9.33
2018-10-09T11:20:29.073Z,9.07
2018-10-09T11:22:57.805Z,8.50
2018-10-09T11:25:26.457Z,9.00
2018-10-09T11:27:55.113Z,9.37
2018-10-09T11:30:23.878Z,9.03
2018-10-09T11:32:52.560Z,8.63
2018-10-09T11:35:21.265Z,9.10
2018-10-09T11:37:49.945Z,9.03
2018-10-09T11:40:18.621Z,8.43
2018-10-09T11:42:47.424Z,8.50
2018-10-09T11:45:16.129Z,8.27
2018-10-09T11:47:44.804Z,8.83
2018-10-09T11:50:13.545Z,8.83
2018-10-09T11:52:42.203Z,8.90
2018-10-09T11:55:10.867Z,8.67
2018-10-09T11:57:39.529Z,8.97
2018-10-09T12:00:08.717Z,8.70
2018-10-09T12:02:37.367Z,8.27
2018-10-09T12:05:06.046Z,8.50
2018-10-09T12:07:34.717Z,8.10
2018-10-09T12:10:03.453Z,8.30
2018-10-09T12:12:32.147Z,8.43
2018-10-09T12:15:00.810Z,8.60
2018-10-09T12:17:29.885Z,7.67
2018-10-09T12:19:58.556Z,7.67
2018-10-09T12:22:27.271Z,7.47
2018-10-09T12:24:55.908Z,7.67
2018-10-09T12:27:24.641Z,7.50
2018-10-09T12:29:53.306Z,7.77
2018-10-09T12:32:21.983Z,7.43
2018-10-09T12:34:50.641Z,7.13
2018-10-09T12:37:19.341Z,7.40
2018-10-09T12:39:47.999Z,7.43
2018-10-09T12:42:16.661Z,7.27
2018-10-09T12:44:45.474Z,7.47
2018-10-09T12:47:14.161Z,7.57
2018-10-09T12:49:42.821Z,7.60
2018-10-09T12:52:11.594Z,6.80
2018-10-09T12:54:40.270Z,6.90
2018-10-09T12:57:09.022Z,6.93
2018-10-09T12:59:37.630Z,7.20
2018-10-09T13:02:06.341Z,6.23
2018-10-09T13:04:35.165Z,7.13
2018-10-09T13:07:03.827Z,6.17
2018-10-09T13:09:32.592Z,6.80
2018-10-09T13:12:01.241Z,7.13
2018-10-09T13:14:29.913Z,6.90
2018-10-09T13:16:58.687Z,6.83
2018-10-09T13:19:27.295Z,6.70
2018-10-09T13:21:56.291Z,6.80
2018-10-09T13:24:24.583Z,7.17
2018-10-09T13:26:53.250Z,6.53
2018-10-09T13:29:21.979Z,6.47
2018-10-09T13:31:50.671Z,6.37
2018-10-09T13:34:19.840Z,7.30
2018-10-09T13:36:48.865Z,6.73
2018-10-09T13:39:17.543Z,6.50
2018-10-09T13:41:46.320Z,6.53
2018-10-09T13:44:15.042Z,6.23
2018-10-09T13:46:43.660Z,6.50
2018-10-09T13:49:12.313Z,6.40
2018-10-09T13:51:40.956Z,6.10
2018-10-09T13:54:09.841Z,6.33
2018-10-09T13:56:38.474Z,6.70
2018-10-09T13:59:07.193Z,6.30
2018-10-09T14:01:35.853Z,7.33
2018-10-09T14:04:04.537Z,6.77
2018-10-09T14:06:33.284Z,6.93
2018-10-09T14:09:01.961Z,7.03
2018-10-09T14:11:30.626Z,6.47
2018-10-09T14:13:59.294Z,6.73
2018-10-09T14:16:27.986Z,6.50
2018-10-09T14:18:56.641Z,7.30
2018-10-09T14:21:25.326Z,6.67
2018-10-09T14:23:54.133Z,6.73
2018-10-09T14:26:22.833Z,7.07
2018-10-09T14:28:51.533Z,7.73
2018-10-09T14:31:20.340Z,7.27
2018-10-09T14:33:48.982Z,7.83
2018-10-09T14:36:17.668Z,7.07
2018-10-09T14:38:46.303Z,6.63
2018-10-09T14:41:14.974Z,6.60
2018-10-09T14:43:43.649Z,7.00
2018-10-09T14:46:12.289Z,7.97
2018-10-09T14:48:40.933Z,8.27
2018-10-09T14:51:09.672Z,6.90
2018-10-09T14:53:38.669Z,7.17
2018-10-09T14:56:07.313Z,6.47
2018-10-09T14:58:35.960Z,6.90
2018-10-09T15:01:04.605Z,7.63
2018-10-09T15:03:33.274Z,7.20
2018-10-09T15:06:01.916Z,7.27
2018-10-09T15:08:30.590Z,7.93
2018-10-09T15:10:59.261Z,7.60
2018-10-09T15:13:27.986Z,10.53
2018-10-09T15:15:56.661Z,9.73
2018-10-09T15:18:25.322Z,8.53
2018-10-09T15:20:53.974Z,8.30
2018-10-09T15:23:22.628Z,8.60
2018-10-09T15:25:51.405Z,8.80
2018-10-09T15:28:20.172Z,8.67
2018-10-09T15:30:48.825Z,8.77
2018-10-09T15:33:17.478Z,9.30
2018-10-09T15:35:46.157Z,9.23
2018-10-09T15:38:14.844Z,9.13
2018-10-09T15:40:43.697Z,8.70
2018-10-09T15:43:12.349Z,7.30
2018-10-09T15:45:41.055Z,7.20
2018-10-09T15:48:09.699Z,7.20
2018-10-09T15:50:38.349Z,7.37
2018-10-09T15:53:07.049Z,7.17
2018-10-09T15:55:35.729Z,7.33
2018-10-09T15:58:04.371Z,7.30
2018-10-09T16:00:37.740Z,7.53
2018-10-09T16:03:07.218Z,6.30
2018-10-09T16:05:36.270Z,6.87
2018-10-09T16:08:04.969Z,6.17
2018-10-09T16:10:33.645Z,6.87
2018-10-09T16:13:02.534Z,7.03
2018-10-09T16:15:31.190Z,7.20
2018-10-09T16:17:59.905Z,7.10
2018-10-09T16:20:28.568Z,8.60
2018-10-09T16:22:57.213Z,8.10
2018-10-09T16:25:25.853Z,7.37
2018-10-09T16:27:54.504Z,7.47
2018-10-09T16:30:23.157Z,7.87
2018-10-09T16:32:51.895Z,8.33
2018-10-09T16:35:20.790Z,7.90
2018-10-09T16:37:49.450Z,7.20
2018-10-09T16:40:18.131Z,8.57
2018-10-09T16:42:46.781Z,8.10
2018-10-09T16:45:15.437Z,8.57
2018-10-09T16:47:44.094Z,9.40
2018-10-09T16:50:12.747Z,8.93
2018-10-09T16:52:41.419Z,8.90
2018-10-09T16:55:10.101Z,10.87
2018-10-09T16:57:38.904Z,10.07
2018-10-09T17:00:07.879Z,10.00
2018-10-09T17:02:36.535Z,10.43
2018-10-09T17:05:05.470Z,13.93
2018-10-09T17:07:34.157Z,12.77
2018-10-09T17:10:02.818Z,13.37
2018-10-09T17:12:31.504Z,11.77
2018-10-09T17:15:00.249Z,11.20
2018-10-09T17:17:28.921Z,12.07
2018-10-09T17:19:57.573Z,12.03
2018-10-09T17:22:26.294Z,11.33
2018-10-09T17:24:54.902Z,11.20
2018-10-09T17:27:23.565Z,11.10
2018-10-09T17:29:52.233Z,10.90
2018-10-09T17:32:20.907Z,11.43
2018-10-09T17:34:49.567Z,11.50
2018-10-09T17:37:18.367Z,11.20
2018-10-09T17:39:47.029Z,11.67
2018-10-09T17:42:15.872Z,11.60
2018-10-09T17:44:44.499Z,11.07
2018-10-09T17:47:13.157Z,12.10
2018-10-09T17:49:41.845Z,11.37
2018-10-09T17:52:11.253Z,11.70
2018-10-09T17:54:39.937Z,11.43
2018-10-09T17:57:08.609Z,11.87
2018-10-09T17:59:37.289Z,11.93
2018-10-09T18:02:06.041Z,12.20
2018-10-09T18:04:34.717Z,12.10
2018-10-09T18:07:03.418Z,13.17
2018-10-09T18:09:32.090Z,13.37
2018-10-09T18:12:00.825Z,15.30
2018-10-09T18:14:29.607Z,13.97
2018-10-09T18:16:58.240Z,14.17
2018-10-09T18:19:26.932Z,14.27
2018-10-09T18:21:55.605Z,15.10
2018-10-09T18:24:36.719Z,14.83
2018-10-09T18:27:05.477Z,14.93
2018-10-09T18:29:34.253Z,14.30
2018-10-09T18:32:02.920Z,15.33
2018-10-09T18:34:31.578Z,15.50
2018-10-09T18:37:00.233Z,15.90
2018-10-09T18:39:28.987Z,16.00
2018-10-09T18:41:57.749Z,15.90
2018-10-09T18:44:26.389Z,16.27
2018-10-09T18:46:55.041Z,15.60
2018-10-09T18:49:23.702Z,14.33
2018-10-09T18:51:52.363Z,16.37
2018-10-09T18:54:21.033Z,15.70
2018-10-09T18:56:49.706Z,16.63
2018-10-09T18:59:18.464Z,16.43
2018-10-09T19:01:47.126Z,16.17
2018-10-09T19:04:15.787Z,16.67
2018-10-09T19:06:44.448Z,17.77
2018-10-09T19:09:13.141Z,16.77
2018-10-09T19:11:41.793Z,18.70
2018-10-09T19:14:10.461Z,18.83
2018-10-09T19:16:39.185Z,19.40
2018-10-09T19:19:07.853Z,18.47
2018-10-09T19:21:36.522Z,18.17
2018-10-09T19:24:05.188Z,18.73
2018-10-09T19:26:33.824Z,19.13
2018-10-09T19:29:02.530Z,19.50
2018-10-09T19:31:31.199Z,20.63
2018-10-09T19:33:59.874Z,20.87
2018-10-09T19:36:28.528Z,20.37
2018-10-09T19:38:57.189Z,18.80
2018-10-09T19:41:25.837Z,19.17
2018-10-09T19:43:54.514Z,17.97
2018-10-09T19:46:23.165Z,18.93
2018-10-09T19:48:51.824Z,18.77
2018-10-09T19:51:20.632Z,17.87
2018-10-09T19:53:49.141Z,17.50
2018-10-09T19:56:17.784Z,18.67
2018-10-09T19:58:46.528Z,19.20
2018-10-09T20:01:15.210Z,19.93
2018-10-09T20:03:43.804Z,20.07
2018-10-09T20:06:12.465Z,20.27
2018-10-09T20:08:41.113Z,21.77
2018-10-09T20:11:09.774Z,21.03
2018-10-09T20:13:38.426Z,19.80
2018-10-09T20:16:07.674Z,20.97
2018-10-09T20:18:36.485Z,21.00
2018-10-09T20:21:05.597Z,19.37
2018-10-09T20:23:34.252Z,18.77
2018-10-09T20:26:02.913Z,17.30
2018-10-09T20:28:31.597Z,17.73
2018-10-09T20:31:00.825Z,17.03
2018-10-09T20:33:30.071Z,15.87
2018-10-09T20:35:58.662Z,16.77
2018-10-09T20:38:27.304Z,15.83
2018-10-09T20:40:55.969Z,16.43
2018-10-09T20:43:24.628Z,15.87
2018-10-09T20:45:53.353Z,15.97
2018-10-09T20:48:22.024Z,15.93
2018-10-09T20:50:50.672Z,16.20
2018-10-09T20:53:19.333Z,16.87
2018-10-09T20:55:47.987Z,16.27
2018-10-09T20:58:16.628Z,15.83
2018-10-09T21:00:45.281Z,16.90
2018-10-09T21:03:13.937Z,16.83
2018-10-09T21:05:42.690Z,16.47
2018-10-09T21:08:11.231Z,16.17
2018-10-09T21:10:39.885Z,16.03
2018-10-09T21:13:08.570Z,16.10
2018-10-09T21:15:37.216Z,16.10
2018-10-09T21:18:06.370Z,15.80
2018-10-09T21:20:35.049Z,15.80
2018-10-09T21:23:03.690Z,17.17
2018-10-09T21:25:32.341Z,17.30
2018-10-09T21:28:00.987Z,17.43
2018-10-09T21:30:29.646Z,16.60
2018-10-09T21:32:58.507Z,18.10
2018-10-09T21:35:27.129Z,18.47
2018-10-09T21:37:55.816Z,18.83
2018-10-09T21:40:24.460Z,18.53
2018-10-09T21:42:53.134Z,21.60
2018-10-09T21:45:21.797Z,19.63
2018-10-09T21:47:56.048Z,19.57
2018-10-09T21:50:24.903Z,19.63
2018-10-09T21:52:53.552Z,18.87
2018-10-09T21:55:22.206Z,19.00
2018-10-09T21:57:50.845Z,19.33
2018-10-09T22:00:19.497Z,20.30
2018-10-09T22:02:48.144Z,19.73
2018-10-09T22:05:16.797Z,19.43
2018-10-09T22:07:45.481Z,21.00
2018-10-09T22:10:14.160Z,19.80
2018-10-09T22:12:42.801Z,20.77
2018-10-09T22:15:11.465Z,21.53
2018-10-09T22:17:40.126Z,20.07
2018-10-09T22:20:08.788Z,21.80
2018-10-09T22:22:37.437Z,21.53
2018-10-09T22:25:06.099Z,21.70
2018-10-09T22:27:34.750Z,21.63
2018-10-09T22:30:03.422Z,21.63
2018-10-09T22:32:32.085Z,21.93
2018-10-09T22:35:00.748Z,22.47
2018-10-09T22:37:29.409Z,23.07
2018-10-09T22:39:58.053Z,23.73
2018-10-09T22:42:26.704Z,24.10
2018-10-09T22:44:55.361Z,23.80
2018-10-09T22:47:24.029Z,24.33
2018-10-09T22:49:52.681Z,24.90
2018-10-09T22:52:21.342Z,26.17
2018-10-09T22:54:50.090Z,25.47
2018-10-09T22:57:18.742Z,27.63
2018-10-09T22:59:47.388Z,27.77
2018-10-09T23:02:16.047Z,27.17
2018-10-09T23:04:44.697Z,27.87
2018-10-09T23:07:13.361Z,29.93
2018-10-09T23:09:42.010Z,29.07
2018-10-09T23:12:10.681Z,28.10
2018-10-09T23:14:39.325Z,27.53
2018-10-09T23:17:08.061Z,29.13
2018-10-09T23:19:36.710Z,30.80
2018-10-09T23:22:05.408Z,29.33
2018-10-09T23:24:34.061Z,31.13
2018-10-09T23:27:02.709Z,29.23
2018-10-09T23:29:31.353Z,30.33
2018-10-09T23:32:00.005Z,31.27
2018-10-09T23:34:28.653Z,31.53
2018-10-09T23:36:57.366Z,28.60
2018-10-09T23:39:26.005Z,29.40
2018-10-09T23:41:54.664Z,30.37
2018-10-09T23:44:23.473Z,30.40
2018-10-09T23:46:52.137Z,31.10
2018-10-09T23:49:20.786Z,31.73
2018-10-09T23:51:49.450Z,31.83
2018-10-09T23:54:18.089Z,32.43
2018-10-09T23:56:46.745Z,32.33
2018-10-09T23:59:15.383Z,32.27
